createdAt,value
2018-08-06T00:00:01.598Z,0.00
2018-08-06T00:01:01.502Z,0.00
2018-08-06T00:02:01.527Z,0.00
2018-08-06T00:03:01.511Z,0.00
2018-08-06T00:04:01.493Z,0.00
2018-08-06T00:05:01.480Z,0.00
2018-08-06T00:06:01.480Z,0.00
2018-08-06T00:07:01.515Z,0.00
2018-08-06T00:08:01.454Z,0.00
2018-08-06T00:09:01.500Z,0.00
2018-08-06T00:10:01.446Z,0.00
2018-08-06T00:11:01.429Z,0.00
2018-08-06T00:12:01.447Z,0.00
2018-08-06T00:13:01.418Z,0.00
2018-08-06T00:14:01.451Z,0.00
2018-08-06T00:15:01.451Z,0.00
2018-08-06T00:16:01.391Z,0.00
2018-08-06T00:17:01.395Z,0.00
2018-08-06T00:18:01.402Z,0.00
2018-08-06T00:19:01.376Z,0.00
2018-08-06T00:20:01.405Z,0.00
2018-08-06T00:21:01.360Z,0.00
2018-08-06T00:22:01.354Z,0.00
2018-08-06T00:23:01.352Z,0.00
2018-08-06T00:24:01.344Z,0.00
2018-08-06T00:25:01.340Z,0.00
2018-08-06T00:26:01.364Z,0.00
2018-08-06T00:27:01.316Z,0.00
2018-08-06T00:28:01.316Z,0.00
2018-08-06T00:29:01.299Z,0.00
2018-08-06T00:30:01.575Z,0.00
2018-08-06T00:31:01.291Z,0.00
2018-08-06T00:32:01.278Z,0.00
2018-08-06T00:33:01.257Z,0.00
2018-08-06T00:34:01.259Z,0.00
2018-08-06T00:35:01.262Z,0.00
2018-08-06T00:36:01.282Z,0.00
2018-08-06T00:37:01.235Z,0.00
2018-08-06T00:38:01.223Z,0.00
2018-08-06T00:39:01.217Z,0.00
2018-08-06T00:40:01.220Z,0.00
2018-08-06T00:41:01.237Z,0.00
2018-08-06T00:42:01.246Z,0.00
2018-08-06T00:43:01.197Z,0.00
2018-08-06T00:44:01.171Z,0.00
2018-08-06T00:45:01.178Z,0.00
2018-08-06T00:46:01.168Z,0.00
2018-08-06T00:47:01.182Z,0.00
2018-08-06T00:48:01.192Z,0.00
2018-08-06T00:49:01.143Z,0.00
2018-08-06T00:50:01.137Z,0.00
2018-08-06T00:51:01.121Z,0.00
2018-08-06T00:52:01.111Z,0.00
2018-08-06T00:53:01.124Z,0.00
2018-08-06T00:54:01.111Z,0.00
2018-08-06T00:55:01.098Z,0.00
2018-08-06T00:56:01.095Z,0.00
2018-08-06T00:57:01.090Z,0.00
2018-08-06T00:58:01.082Z,0.00
2018-08-06T00:59:01.065Z,0.00
2018-08-06T01:00:01.049Z,0.00
2018-08-06T01:01:01.050Z,0.00
2018-08-06T01:02:01.039Z,0.00
2018-08-06T01:03:01.092Z,0.00
2018-08-06T01:04:01.023Z,0.00
2018-08-06T01:05:01.015Z,0.00
2018-08-06T01:06:01.009Z,0.00
2018-08-06T01:07:00.999Z,0.00
2018-08-06T01:08:00.993Z,0.00
2018-08-06T01:09:01.032Z,0.00
2018-08-06T01:10:00.979Z,0.00
2018-08-06T01:11:00.969Z,0.00
2018-08-06T01:12:00.967Z,0.00
2018-08-06T01:13:00.960Z,0.00
2018-08-06T01:14:00.980Z,0.00
2018-08-06T01:15:00.944Z,0.00
2018-08-06T01:16:00.928Z,0.00
2018-08-06T01:17:00.916Z,0.00
2018-08-06T01:18:00.913Z,0.00
2018-08-06T01:19:00.907Z,0.00
2018-08-06T01:20:00.920Z,0.00
2018-08-06T01:21:00.885Z,0.00
2018-08-06T01:22:00.890Z,0.00
2018-08-06T01:23:00.870Z,0.00
2018-08-06T01:24:00.869Z,0.00
2018-08-06T01:25:00.868Z,0.00
2018-08-06T01:26:00.869Z,0.00
2018-08-06T01:27:00.844Z,0.00
2018-08-06T01:28:00.841Z,0.00
2018-08-06T01:29:00.822Z,0.00
2018-08-06T01:30:00.833Z,0.00
2018-08-06T01:31:00.846Z,0.00
2018-08-06T01:32:00.805Z,0.00
2018-08-06T01:33:00.781Z,0.00
2018-08-06T01:34:00.784Z,0.00
2018-08-06T01:35:00.813Z,0.00
2018-08-06T01:36:00.773Z,0.00
2018-08-06T01:37:00.759Z,0.00
2018-08-06T01:38:00.755Z,0.00
2018-08-06T01:39:00.748Z,0.00
2018-08-06T01:40:00.779Z,0.00
2018-08-06T01:41:00.728Z,0.00
2018-08-06T01:42:00.715Z,0.00
2018-08-06T01:43:00.712Z,0.00
2018-08-06T01:44:00.707Z,0.00
2018-08-06T01:45:00.727Z,0.00
2018-08-06T01:46:00.689Z,0.00
2018-08-06T01:47:00.672Z,0.00
2018-08-06T01:48:00.699Z,0.00
2018-08-06T01:49:00.665Z,0.00
2018-08-06T01:50:00.655Z,0.00
2018-08-06T01:51:00.657Z,0.00
2018-08-06T01:52:00.650Z,0.00
2018-08-06T01:53:00.623Z,0.00
2018-08-06T01:54:00.623Z,0.00
2018-08-06T01:55:00.611Z,0.00
2018-08-06T01:56:00.604Z,0.00
2018-08-06T01:57:00.638Z,0.00
2018-08-06T01:58:00.647Z,0.00
2018-08-06T01:59:00.574Z,0.00
2018-08-06T02:00:00.564Z,0.00
2018-08-06T02:01:00.559Z,0.00
2018-08-06T02:02:00.554Z,0.00
2018-08-06T02:03:00.536Z,0.00
2018-08-06T02:04:00.589Z,0.00
2018-08-06T02:05:00.528Z,0.00
2018-08-06T02:06:00.515Z,0.00
2018-08-06T02:07:00.504Z,0.00
2018-08-06T02:08:00.507Z,0.00
2018-08-06T02:09:00.491Z,0.00
2018-08-06T02:10:00.534Z,0.00
2018-08-06T02:11:00.485Z,0.00
2018-08-06T02:12:00.489Z,0.00
2018-08-06T02:13:00.472Z,0.00
2018-08-06T02:14:00.445Z,0.00
2018-08-06T02:15:00.436Z,0.00
2018-08-06T02:16:00.466Z,0.00
2018-08-06T02:17:00.418Z,0.00
2018-08-06T02:18:00.402Z,0.00
2018-08-06T02:19:00.400Z,0.00
2018-08-06T02:20:00.433Z,0.00
2018-08-06T02:21:00.370Z,0.00
2018-08-06T02:22:00.364Z,0.00
2018-08-06T02:23:00.363Z,0.00
2018-08-06T02:24:00.350Z,0.00
2018-08-06T02:25:00.380Z,0.00
2018-08-06T02:26:00.374Z,0.00
2018-08-06T02:27:00.331Z,0.00
2018-08-06T02:28:00.325Z,0.00
2018-08-06T02:29:00.313Z,0.00
2018-08-06T02:30:00.314Z,0.00
2018-08-06T02:31:00.332Z,0.00
2018-08-06T02:32:00.277Z,0.00
2018-08-06T02:33:00.278Z,0.00
2018-08-06T02:34:00.271Z,0.00
2018-08-06T02:35:00.264Z,0.00
2018-08-06T02:36:00.463Z,0.00
2018-08-06T02:37:00.235Z,0.00
2018-08-06T02:38:00.265Z,0.00
2018-08-06T02:39:00.217Z,0.00
2018-08-06T02:40:00.215Z,0.00
2018-08-06T02:41:00.208Z,0.00
2018-08-06T02:42:00.204Z,0.00
2018-08-06T02:43:00.196Z,0.00
2018-08-06T02:44:00.174Z,0.00
2018-08-06T02:45:00.181Z,0.00
2018-08-06T02:46:00.152Z,0.00
2018-08-06T02:47:00.164Z,0.00
2018-08-06T02:48:00.152Z,0.00
2018-08-06T02:49:00.138Z,0.00
2018-08-06T02:50:00.134Z,0.00
2018-08-06T02:51:00.119Z,0.00
2018-08-06T02:52:00.161Z,0.00
2018-08-06T02:53:00.105Z,0.00
2018-08-06T02:54:00.082Z,0.00
2018-08-06T02:55:00.079Z,0.00
2018-08-06T02:56:00.081Z,0.00
2018-08-06T02:57:00.086Z,0.00
2018-08-06T02:58:00.052Z,0.00
2018-08-06T02:59:00.051Z,0.00
2018-08-06T03:00:00.040Z,0.00
2018-08-06T03:01:00.106Z,0.00
2018-08-06T03:02:00.025Z,0.00
2018-08-06T03:03:00.003Z,0.00
2018-08-06T03:04:00.004Z,0.00
2018-08-06T03:04:59.997Z,0.00
2018-08-06T03:06:00.068Z,0.00
2018-08-06T03:06:59.985Z,0.00
2018-08-06T03:07:59.959Z,0.00
2018-08-06T03:08:59.971Z,0.00
2018-08-06T03:09:59.965Z,0.00
2018-08-06T03:10:59.944Z,0.00
2018-08-06T03:11:59.980Z,0.00
2018-08-06T03:12:59.922Z,0.00
2018-08-06T03:13:59.916Z,0.00
2018-08-06T03:14:59.900Z,0.00
2018-08-06T03:15:59.901Z,0.00
2018-08-06T03:16:59.925Z,0.00
2018-08-06T03:17:59.886Z,0.00
2018-08-06T03:18:59.984Z,0.00
2018-08-06T03:19:59.849Z,0.00
2018-08-06T03:20:59.851Z,0.00
2018-08-06T03:21:59.841Z,0.00
2018-08-06T03:22:59.861Z,0.00
2018-08-06T03:23:59.833Z,0.00
2018-08-06T03:24:59.854Z,0.00
2018-08-06T03:25:59.841Z,0.00
2018-08-06T03:26:59.798Z,0.00
2018-08-06T03:27:59.777Z,0.00
2018-08-06T03:28:59.784Z,0.00
2018-08-06T03:29:59.775Z,0.00
2018-08-06T03:30:59.810Z,0.00
2018-08-06T03:31:59.748Z,0.00
2018-08-06T03:32:59.740Z,0.00
2018-08-06T03:33:59.730Z,0.00
2018-08-06T03:34:59.727Z,0.00
2018-08-06T03:35:59.714Z,0.00
2018-08-06T03:36:59.728Z,0.00
2018-08-06T03:37:59.692Z,0.00
2018-08-06T03:38:59.688Z,0.00
2018-08-06T03:39:59.691Z,0.00
2018-08-06T03:40:59.685Z,0.00
2018-08-06T03:41:59.660Z,0.00
2018-08-06T03:42:59.658Z,0.00
2018-08-06T03:43:59.647Z,0.00
2018-08-06T03:44:59.641Z,0.00
2018-08-06T03:45:59.657Z,0.00
2018-08-06T03:46:59.656Z,0.00
2018-08-06T03:47:59.609Z,0.00
2018-08-06T03:48:59.586Z,0.00
2018-08-06T03:49:59.606Z,0.00
2018-08-06T03:50:59.574Z,0.00
2018-08-06T03:51:59.607Z,0.00
2018-08-06T03:52:59.603Z,0.00
2018-08-06T03:53:59.552Z,0.00
2018-08-06T03:54:59.539Z,0.00
2018-08-06T03:55:59.538Z,0.00
2018-08-06T03:56:59.580Z,0.00
2018-08-06T03:57:59.521Z,0.00
2018-08-06T03:58:59.495Z,0.00
2018-08-06T03:59:59.498Z,0.00
2018-08-06T04:00:59.482Z,0.00
2018-08-06T04:01:59.474Z,0.00
2018-08-06T04:02:59.504Z,0.00
2018-08-06T04:03:59.455Z,0.00
2018-08-06T04:04:59.436Z,0.00
2018-08-06T04:05:59.435Z,0.00
2018-08-06T04:06:59.418Z,0.00
2018-08-06T04:07:59.443Z,0.00
2018-08-06T04:08:59.407Z,0.00
2018-08-06T04:09:59.404Z,0.00
2018-08-06T04:10:59.389Z,0.00
2018-08-06T04:11:59.388Z,0.00
2018-08-06T04:12:59.399Z,0.00
2018-08-06T04:13:59.428Z,5.63
2018-08-06T04:14:59.351Z,5.63
2018-08-06T04:15:59.347Z,5.63
2018-08-06T04:16:59.338Z,5.63
2018-08-06T04:17:59.326Z,5.63
2018-08-06T04:18:59.315Z,5.63
2018-08-06T04:19:59.348Z,5.63
2018-08-06T04:20:59.324Z,5.63
2018-08-06T04:21:59.289Z,5.63
2018-08-06T04:22:59.275Z,5.63
2018-08-06T04:23:59.267Z,5.63
2018-08-06T04:24:59.310Z,5.63
2018-08-06T04:25:59.260Z,5.63
2018-08-06T04:26:59.236Z,5.63
2018-08-06T04:27:59.237Z,5.63
2018-08-06T04:28:59.224Z,5.63
2018-08-06T04:29:59.207Z,5.63
2018-08-06T04:30:59.217Z,5.63
2018-08-06T04:31:59.251Z,11.25
2018-08-06T04:32:59.195Z,11.25
2018-08-06T04:33:59.174Z,11.25
2018-08-06T04:34:59.174Z,11.25
2018-08-06T04:35:59.158Z,11.25
2018-08-06T04:36:59.139Z,11.25
2018-08-06T04:37:59.151Z,11.25
2018-08-06T04:38:59.139Z,11.25
2018-08-06T04:39:59.116Z,11.25
2018-08-06T04:40:59.122Z,11.25
2018-08-06T04:41:59.152Z,11.25
2018-08-06T04:42:59.095Z,11.25
2018-08-06T04:43:59.079Z,11.25
2018-08-06T04:44:59.078Z,11.25
2018-08-06T04:45:59.126Z,11.25
2018-08-06T04:46:59.059Z,11.25
2018-08-06T04:47:59.063Z,16.88
2018-08-06T04:48:59.042Z,16.88
2018-08-06T04:49:59.075Z,16.88
2018-08-06T04:50:59.023Z,16.88
2018-08-06T04:51:59.008Z,16.88
2018-08-06T04:52:58.989Z,16.88
2018-08-06T04:53:59.033Z,16.88
2018-08-06T04:54:59.042Z,16.88
2018-08-06T04:55:58.974Z,16.88
2018-08-06T04:56:58.962Z,16.88
2018-08-06T04:57:58.950Z,16.88
2018-08-06T04:58:58.942Z,16.88
2018-08-06T04:59:58.938Z,16.88
2018-08-06T05:00:58.939Z,16.88
2018-08-06T05:01:58.917Z,16.88
2018-08-06T05:02:58.914Z,16.88
2018-08-06T05:03:58.892Z,16.88
2018-08-06T05:04:58.893Z,22.50
2018-08-06T05:05:58.918Z,22.50
2018-08-06T05:06:58.954Z,22.50
2018-08-06T05:07:58.861Z,22.50
2018-08-06T05:08:58.856Z,22.50
2018-08-06T05:09:58.854Z,22.50
2018-08-06T05:10:58.871Z,22.50
2018-08-06T05:11:58.846Z,22.50
2018-08-06T05:12:58.825Z,22.50
2018-08-06T05:13:58.825Z,22.50
2018-08-06T05:14:58.800Z,22.50
2018-08-06T05:15:58.794Z,22.50
2018-08-06T05:16:58.798Z,22.50
2018-08-06T05:17:58.786Z,22.50
2018-08-06T05:18:58.779Z,22.50
2018-08-06T05:19:59.760Z,22.50
2018-08-06T05:20:58.750Z,22.50
2018-08-06T05:21:58.758Z,22.50
2018-08-06T05:22:58.739Z,22.50
2018-08-06T05:23:58.708Z,22.50
2018-08-06T05:24:58.734Z,22.50
2018-08-06T05:25:58.690Z,22.50
2018-08-06T05:26:58.687Z,22.50
2018-08-06T05:27:58.675Z,28.13
2018-08-06T05:28:59.031Z,28.13
2018-08-06T05:29:58.652Z,28.13
2018-08-06T05:30:58.656Z,28.13
2018-08-06T05:31:58.643Z,28.13
2018-08-06T05:32:58.639Z,28.13
2018-08-06T05:33:58.638Z,28.13
2018-08-06T05:34:58.618Z,28.13
2018-08-06T05:35:58.606Z,28.13
2018-08-06T05:36:58.601Z,28.13
2018-08-06T05:37:58.585Z,28.13
2018-08-06T05:38:58.577Z,28.13
2018-08-06T05:39:58.591Z,28.13
2018-08-06T05:40:58.608Z,28.13
2018-08-06T05:41:58.549Z,28.13
2018-08-06T05:42:58.545Z,28.13
2018-08-06T05:43:58.524Z,28.13
2018-08-06T05:44:58.537Z,28.13
2018-08-06T05:45:58.511Z,28.13
2018-08-06T05:46:58.512Z,28.13
2018-08-06T05:47:58.491Z,28.13
2018-08-06T05:48:58.492Z,28.13
2018-08-06T05:49:58.507Z,28.13
2018-08-06T05:50:58.504Z,28.13
2018-08-06T05:51:58.465Z,28.13
2018-08-06T05:52:58.454Z,28.13
2018-08-06T05:53:58.450Z,28.13
2018-08-06T05:54:58.455Z,28.13
2018-08-06T05:55:58.432Z,28.13
2018-08-06T05:56:58.426Z,28.13
2018-08-06T05:57:58.410Z,28.13
2018-08-06T05:58:58.411Z,28.13
2018-08-06T05:59:58.469Z,28.13
2018-08-06T06:00:58.390Z,28.13
2018-08-06T06:01:58.382Z,28.13
2018-08-06T06:02:58.366Z,28.13
2018-08-06T06:03:58.360Z,28.13
2018-08-06T06:04:58.341Z,28.13
2018-08-06T06:05:58.371Z,28.13
2018-08-06T06:06:58.338Z,28.13
2018-08-06T06:07:58.357Z,28.13
2018-08-06T06:08:58.312Z,33.75
2018-08-06T06:09:58.306Z,33.75
2018-08-06T06:10:58.317Z,33.75
2018-08-06T06:11:58.332Z,33.75
2018-08-06T06:12:58.274Z,33.75
2018-08-06T06:13:58.275Z,33.75
2018-08-06T06:14:58.298Z,33.75
2018-08-06T06:15:58.245Z,33.75
2018-08-06T06:16:58.246Z,33.75
2018-08-06T06:17:58.263Z,33.75
2018-08-06T06:18:58.237Z,33.75
2018-08-06T06:19:58.222Z,39.38
2018-08-06T06:20:58.206Z,39.38
2018-08-06T06:21:58.259Z,45.00
2018-08-06T06:22:58.193Z,45.00
2018-08-06T06:23:58.174Z,45.00
2018-08-06T06:24:58.162Z,45.00
2018-08-06T06:25:58.161Z,39.38
2018-08-06T06:26:58.160Z,39.38
2018-08-06T06:27:58.153Z,39.38
2018-08-06T06:28:58.143Z,39.38
2018-08-06T06:29:58.315Z,39.38
2018-08-06T06:30:58.146Z,39.38
2018-08-06T06:31:58.135Z,39.38
2018-08-06T06:32:58.107Z,39.38
2018-08-06T06:33:58.097Z,45.00
2018-08-06T06:34:58.173Z,45.00
2018-08-06T06:35:58.439Z,45.00
2018-08-06T06:36:58.088Z,39.38
2018-08-06T06:37:58.070Z,39.38
2018-08-06T06:38:58.054Z,39.38
2018-08-06T06:39:58.041Z,39.38
2018-08-06T06:40:58.041Z,39.38
2018-08-06T06:41:58.047Z,39.38
2018-08-06T06:42:58.027Z,39.38
2018-08-06T06:43:58.031Z,39.38
2018-08-06T06:44:58.017Z,39.38
2018-08-06T06:45:58.043Z,39.38
2018-08-06T06:46:57.986Z,39.38
2018-08-06T06:47:58.023Z,39.38
2018-08-06T06:48:58.076Z,39.38
2018-08-06T06:49:57.959Z,33.75
2018-08-06T06:50:57.963Z,33.75
2018-08-06T06:51:57.963Z,33.75
2018-08-06T06:52:57.986Z,39.38
2018-08-06T06:53:57.934Z,39.38
2018-08-06T06:54:57.935Z,39.38
2018-08-06T06:55:57.919Z,39.38
2018-08-06T06:56:57.910Z,39.38
2018-08-06T06:57:57.909Z,39.38
2018-08-06T06:58:57.949Z,45.00
2018-08-06T06:59:57.936Z,45.00
2018-08-06T07:00:57.874Z,45.00
2018-08-06T07:01:57.869Z,45.00
2018-08-06T07:02:57.896Z,45.00
2018-08-06T07:03:57.860Z,45.00
2018-08-06T07:04:57.857Z,45.00
2018-08-06T07:05:57.845Z,45.00
2018-08-06T07:06:57.847Z,39.38
2018-08-06T07:07:57.832Z,45.00
2018-08-06T07:08:57.824Z,45.00
2018-08-06T07:09:57.813Z,45.00
2018-08-06T07:10:57.810Z,45.00
2018-08-06T07:11:57.809Z,45.00
2018-08-06T07:12:57.782Z,45.00
2018-08-06T07:13:57.827Z,39.38
2018-08-06T07:14:57.845Z,39.38
2018-08-06T07:15:57.759Z,39.38
2018-08-06T07:16:57.756Z,39.38
2018-08-06T07:17:57.755Z,39.38
2018-08-06T07:18:57.753Z,39.38
2018-08-06T07:19:57.743Z,45.00
2018-08-06T07:20:57.778Z,45.00
2018-08-06T07:21:57.732Z,45.00
2018-08-06T07:22:57.715Z,45.00
2018-08-06T07:23:57.710Z,45.00
2018-08-06T07:24:57.736Z,45.00
2018-08-06T07:25:57.742Z,45.00
2018-08-06T07:26:57.690Z,45.00
2018-08-06T07:27:57.672Z,45.00
2018-08-06T07:28:57.681Z,45.00
2018-08-06T07:29:57.670Z,45.00
2018-08-06T07:30:57.658Z,39.38
2018-08-06T07:31:57.709Z,39.38
2018-08-06T07:32:57.733Z,39.38
2018-08-06T07:33:57.645Z,39.38
2018-08-06T07:34:57.662Z,45.00
2018-08-06T07:35:57.629Z,45.00
2018-08-06T07:36:57.634Z,45.00
2018-08-06T07:37:57.621Z,45.00
2018-08-06T07:38:57.613Z,45.00
2018-08-06T07:39:57.648Z,45.00
2018-08-06T07:40:57.599Z,45.00
2018-08-06T07:41:57.681Z,45.00
2018-08-06T07:42:57.573Z,45.00
2018-08-06T07:43:57.600Z,45.00
2018-08-06T07:44:57.571Z,45.00
2018-08-06T07:45:57.554Z,45.00
2018-08-06T07:46:57.586Z,45.00
2018-08-06T07:47:57.638Z,45.00
2018-08-06T07:48:57.552Z,45.00
2018-08-06T07:49:57.615Z,45.00
2018-08-06T07:50:57.552Z,45.00
2018-08-06T07:51:57.523Z,45.00
2018-08-06T07:52:57.510Z,45.00
2018-08-06T07:53:57.502Z,45.00
2018-08-06T07:54:57.492Z,45.00
2018-08-06T07:55:57.501Z,45.00
2018-08-06T07:56:57.481Z,45.00
2018-08-06T07:57:57.476Z,45.00
2018-08-06T07:58:57.501Z,45.00
2018-08-06T07:59:57.456Z,50.63
2018-08-06T08:00:57.456Z,50.63
2018-08-06T08:01:57.456Z,50.63
2018-08-06T08:02:57.444Z,56.25
2018-08-06T08:03:57.456Z,50.63
2018-08-06T08:04:57.438Z,50.63
2018-08-06T08:05:57.421Z,50.63
2018-08-06T08:06:57.434Z,56.25
2018-08-06T08:07:57.412Z,50.63
2018-08-06T08:08:57.428Z,50.63
2018-08-06T08:09:57.394Z,50.63
2018-08-06T08:10:57.435Z,50.63
2018-08-06T08:11:57.430Z,50.63
2018-08-06T08:12:57.391Z,56.25
2018-08-06T08:13:57.379Z,56.25
2018-08-06T08:14:57.364Z,56.25
2018-08-06T08:15:57.411Z,56.25
2018-08-06T08:16:57.347Z,56.25
2018-08-06T08:17:57.342Z,56.25
2018-08-06T08:18:57.346Z,56.25
2018-08-06T08:19:57.455Z,56.25
2018-08-06T08:20:57.356Z,61.88
2018-08-06T08:21:57.324Z,56.25
2018-08-06T08:22:57.352Z,56.25
2018-08-06T08:23:57.317Z,56.25
2018-08-06T08:24:57.309Z,56.25
2018-08-06T08:25:57.322Z,61.88
2018-08-06T08:26:57.287Z,61.88
2018-08-06T08:27:57.314Z,61.88
2018-08-06T08:28:57.284Z,61.88
2018-08-06T08:29:57.325Z,61.88
2018-08-06T08:30:57.298Z,61.88
2018-08-06T08:31:57.271Z,61.88
2018-08-06T08:32:57.244Z,61.88
2018-08-06T08:33:57.248Z,61.88
2018-08-06T08:34:57.247Z,61.88
2018-08-06T08:35:57.248Z,61.88
2018-08-06T08:36:57.468Z,67.50
2018-08-06T08:37:57.226Z,61.88
2018-08-06T08:38:57.219Z,61.88
2018-08-06T08:39:57.205Z,61.88
2018-08-06T08:40:57.211Z,61.88
2018-08-06T08:41:57.206Z,61.88
2018-08-06T08:42:57.246Z,61.88
2018-08-06T08:43:57.192Z,61.88
2018-08-06T08:44:57.177Z,61.88
2018-08-06T08:45:57.180Z,61.88
2018-08-06T08:46:57.172Z,67.50
2018-08-06T08:47:57.184Z,67.50
2018-08-06T08:48:57.186Z,67.50
2018-08-06T08:49:57.193Z,67.50
2018-08-06T08:50:57.188Z,73.13
2018-08-06T08:51:57.161Z,84.38
2018-08-06T08:52:57.152Z,129.38
2018-08-06T08:53:57.256Z,140.63
2018-08-06T08:54:57.130Z,118.13
2018-08-06T08:55:57.125Z,196.88
2018-08-06T08:56:57.112Z,444.38
2018-08-06T08:57:57.105Z,466.88
2018-08-06T08:58:57.208Z,388.13
2018-08-06T08:59:57.103Z,607.50
2018-08-06T09:00:57.444Z,450.00
2018-08-06T09:01:57.104Z,230.63
2018-08-06T09:02:57.088Z,129.38
2018-08-06T09:03:57.082Z,163.13
2018-08-06T09:04:57.079Z,168.75
2018-08-06T09:05:57.067Z,180.00
2018-08-06T09:06:57.094Z,348.75
2018-08-06T09:07:57.070Z,433.13
2018-08-06T09:08:57.064Z,540.00
2018-08-06T09:09:57.051Z,416.25
2018-08-06T09:10:57.047Z,365.63
2018-08-06T09:11:57.093Z,337.50
2018-08-06T09:12:57.039Z,281.25
2018-08-06T09:13:57.059Z,326.25
2018-08-06T09:14:57.031Z,433.13
2018-08-06T09:15:57.028Z,416.25
2018-08-06T09:16:57.585Z,337.50
2018-08-06T09:17:59.622Z,360.00
2018-08-06T09:18:57.040Z,180.00
2018-08-06T09:19:57.023Z,123.75
2018-08-06T09:20:57.017Z,140.63
2018-08-06T09:21:57.015Z,180.00
2018-08-06T09:22:58.604Z,253.13
2018-08-06T09:23:57.051Z,230.63
2018-08-06T09:24:57.023Z,168.75
2018-08-06T09:25:57.178Z,270.00
2018-08-06T09:26:57.018Z,1023.75
2018-08-06T09:27:57.065Z,2030.63
2018-08-06T09:28:59.642Z,3121.88
2018-08-06T09:29:57.032Z,3380.63
2018-08-06T09:30:57.003Z,3251.25
2018-08-06T09:31:56.994Z,3285.00
2018-08-06T09:32:57.000Z,3369.38
2018-08-06T09:33:57.067Z,3318.75
2018-08-06T09:34:57.058Z,3577.50
2018-08-06T09:35:57.003Z,3476.25
2018-08-06T09:36:57.011Z,3268.13
2018-08-06T09:37:57.012Z,3605.63
2018-08-06T09:38:57.011Z,3341.25
2018-08-06T09:39:57.004Z,3088.13
2018-08-06T09:40:57.012Z,3358.13
2018-08-06T09:41:57.024Z,3476.25
2018-08-06T09:42:57.009Z,3633.75
2018-08-06T09:43:57.044Z,3470.63
2018-08-06T09:44:57.016Z,3211.88
2018-08-06T09:45:57.048Z,3639.38
2018-08-06T09:46:57.022Z,3718.13
2018-08-06T09:47:57.036Z,3639.38
2018-08-06T09:48:57.034Z,3538.13
2018-08-06T09:49:57.047Z,3628.13
2018-08-06T09:50:57.050Z,3543.75
2018-08-06T09:51:57.043Z,3313.13
2018-08-06T09:52:57.051Z,3195.00
2018-08-06T09:53:57.051Z,3031.88
2018-08-06T09:54:57.061Z,3195.00
2018-08-06T09:55:57.098Z,3279.38
2018-08-06T09:56:57.197Z,3240.00
2018-08-06T09:57:57.082Z,3273.75
2018-08-06T09:58:57.077Z,3588.75
2018-08-06T09:59:57.087Z,3678.75
2018-08-06T10:00:57.094Z,3875.63
2018-08-06T10:01:57.093Z,4106.25
2018-08-06T10:02:57.110Z,4044.38
2018-08-06T10:03:57.105Z,4038.75
2018-08-06T10:04:57.111Z,4066.88
2018-08-06T10:05:57.375Z,4359.38
2018-08-06T10:06:57.125Z,4325.63
2018-08-06T10:07:57.138Z,3931.88
2018-08-06T10:08:57.140Z,3931.88
2018-08-06T10:09:57.134Z,4218.75
2018-08-06T10:10:57.184Z,4320.00
2018-08-06T10:11:57.203Z,4128.75
2018-08-06T10:12:57.162Z,4156.88
2018-08-06T10:13:57.213Z,4387.50
2018-08-06T10:14:57.183Z,4545.00
2018-08-06T10:15:57.181Z,4410.00
2018-08-06T10:16:57.228Z,4590.00
2018-08-06T10:17:57.206Z,4365.00
2018-08-06T10:18:57.270Z,4488.75
2018-08-06T10:19:57.221Z,4831.88
2018-08-06T10:20:57.241Z,4404.38
2018-08-06T10:21:57.230Z,4320.00
2018-08-06T10:22:57.247Z,4590.00
2018-08-06T10:23:57.395Z,4246.88
2018-08-06T10:24:57.256Z,4449.38
2018-08-06T10:25:57.270Z,4516.88
2018-08-06T10:26:57.294Z,4224.38
2018-08-06T10:27:57.280Z,4252.50
2018-08-06T10:28:57.340Z,4252.50
2018-08-06T10:29:57.334Z,4050.00
2018-08-06T10:30:57.308Z,4016.25
2018-08-06T10:31:57.330Z,4033.13
2018-08-06T10:32:57.349Z,3915.00
2018-08-06T10:33:57.336Z,4213.13
2018-08-06T10:34:57.342Z,2913.75
2018-08-06T10:35:57.361Z,1355.63
2018-08-06T10:36:57.358Z,967.50
2018-08-06T10:37:57.378Z,2868.75
2018-08-06T10:38:57.386Z,3931.88
2018-08-06T10:39:57.392Z,4083.75
2018-08-06T10:40:57.386Z,4179.38
2018-08-06T10:41:57.422Z,1940.63
2018-08-06T10:42:57.428Z,354.38
2018-08-06T10:43:57.478Z,444.38
2018-08-06T10:44:57.553Z,708.75
2018-08-06T10:45:57.440Z,990.00
2018-08-06T10:46:57.442Z,123.75
2018-08-06T10:47:57.450Z,236.25
2018-08-06T10:48:57.467Z,196.88
2018-08-06T10:50:01.567Z,270.00
2018-08-06T10:50:57.476Z,292.50
2018-08-06T10:51:57.646Z,157.50
2018-08-06T10:52:57.495Z,95.63
2018-08-06T10:53:57.517Z,90.00
2018-08-06T10:54:57.550Z,95.63
2018-08-06T10:55:58.185Z,106.88
2018-08-06T10:56:57.502Z,275.63
2018-08-06T10:57:57.511Z,883.13
2018-08-06T10:58:57.526Z,1333.13
2018-08-06T10:59:57.520Z,433.13
2018-08-06T11:00:57.549Z,208.13
2018-08-06T11:01:57.541Z,129.38
2018-08-06T11:02:57.526Z,163.13
2018-08-06T11:03:59.093Z,157.50
2018-08-06T11:04:57.529Z,101.25
2018-08-06T11:05:57.544Z,95.63
2018-08-06T11:06:57.559Z,90.00
2018-08-06T11:07:57.539Z,151.88
2018-08-06T11:08:57.573Z,118.13
2018-08-06T11:09:57.541Z,140.63
2018-08-06T11:10:57.596Z,90.00
2018-08-06T11:11:57.556Z,123.75
2018-08-06T11:12:57.562Z,90.00
2018-08-06T11:13:57.584Z,95.63
2018-08-06T11:14:57.556Z,168.75
2018-08-06T11:15:57.569Z,196.88
2018-08-06T11:16:57.565Z,202.50
2018-08-06T11:17:57.729Z,101.25
2018-08-06T11:18:57.594Z,180.00
2018-08-06T11:19:57.573Z,196.88
2018-08-06T11:20:57.615Z,376.88
2018-08-06T11:21:57.582Z,208.13
2018-08-06T11:22:57.577Z,95.63
2018-08-06T11:23:58.193Z,101.25
2018-08-06T11:24:57.569Z,191.25
2018-08-06T11:25:57.586Z,298.13
2018-08-06T11:26:57.563Z,163.13
2018-08-06T11:27:57.574Z,180.00
2018-08-06T11:28:57.641Z,157.50
2018-08-06T11:29:57.570Z,433.13
2018-08-06T11:30:57.579Z,652.50
2018-08-06T11:31:57.618Z,1428.75
2018-08-06T11:32:57.582Z,1468.13
2018-08-06T11:33:57.581Z,1710.00
2018-08-06T11:34:57.611Z,1794.38
2018-08-06T11:35:57.609Z,2778.75
2018-08-06T11:36:57.592Z,3999.38
2018-08-06T11:37:57.637Z,4207.50
2018-08-06T11:38:57.576Z,4010.63
2018-08-06T11:39:57.591Z,3819.38
2018-08-06T11:40:57.614Z,3442.50
2018-08-06T11:41:57.581Z,2148.75
2018-08-06T11:42:57.587Z,2424.38
2018-08-06T11:43:57.581Z,1282.50
2018-08-06T11:44:57.585Z,2160.00
2018-08-06T11:45:57.624Z,3268.13
2018-08-06T11:46:57.587Z,3161.25
2018-08-06T11:47:57.612Z,748.13
2018-08-06T11:48:57.654Z,1237.50
2018-08-06T11:49:57.585Z,1518.75
2018-08-06T11:50:57.613Z,1974.38
2018-08-06T11:51:58.235Z,1372.50
2018-08-06T11:52:57.596Z,4387.50
2018-08-06T11:53:57.590Z,1991.25
2018-08-06T11:54:57.606Z,4381.88
2018-08-06T11:55:57.600Z,4275.00
2018-08-06T11:56:57.637Z,4224.38
2018-08-06T11:57:57.600Z,4269.38
2018-08-06T11:58:57.635Z,3965.63
2018-08-06T11:59:57.623Z,4370.63
2018-08-06T12:00:57.625Z,4376.25
2018-08-06T12:01:57.672Z,4426.88
2018-08-06T12:02:57.626Z,4415.63
2018-08-06T12:03:57.625Z,4280.63
2018-08-06T12:04:57.642Z,3121.88
2018-08-06T12:05:57.635Z,3026.25
2018-08-06T12:06:57.633Z,4443.75
2018-08-06T12:07:57.647Z,2902.50
2018-08-06T12:08:57.668Z,3830.63
2018-08-06T12:09:57.635Z,2497.50
2018-08-06T12:10:57.642Z,1732.50
2018-08-06T12:11:57.645Z,399.38
2018-08-06T12:12:57.707Z,123.75
2018-08-06T12:13:57.695Z,123.75
2018-08-06T12:14:57.651Z,219.38
2018-08-06T12:15:57.672Z,135.00
2018-08-06T12:16:57.691Z,135.00
2018-08-06T12:17:57.774Z,275.63
2018-08-06T12:18:57.676Z,157.50
2018-08-06T12:19:57.927Z,146.25
2018-08-06T12:20:57.773Z,101.25
2018-08-06T12:21:57.698Z,101.25
2018-08-06T12:22:57.698Z,101.25
2018-08-06T12:23:57.777Z,95.63
2018-08-06T12:24:57.694Z,196.88
2018-08-06T12:25:58.367Z,106.88
2018-08-06T12:26:57.716Z,213.75
2018-08-06T12:27:57.703Z,106.88
2018-08-06T12:28:57.715Z,95.63
2018-08-06T12:29:57.719Z,270.00
2018-08-06T12:30:57.711Z,658.13
2018-08-06T12:31:57.725Z,191.25
2018-08-06T12:32:57.845Z,1141.88
2018-08-06T12:33:57.720Z,185.63
2018-08-06T12:34:57.748Z,146.25
2018-08-06T12:35:57.733Z,101.25
2018-08-06T12:36:58.265Z,658.13
2018-08-06T12:37:57.731Z,270.00
2018-08-06T12:38:57.738Z,123.75
2018-08-06T12:39:57.778Z,112.50
2018-08-06T12:40:57.737Z,106.88
2018-08-06T12:41:58.850Z,101.25
2018-08-06T12:42:57.840Z,129.38
2018-08-06T12:43:57.735Z,135.00
2018-08-06T12:44:57.752Z,101.25
2018-08-06T12:45:57.750Z,95.63
2018-08-06T12:46:57.806Z,95.63
2018-08-06T12:47:57.865Z,95.63
2018-08-06T12:48:57.746Z,129.38
2018-08-06T12:49:57.740Z,95.63